sensor_id;sensor_type;location;lat;lon;timestamp;P1;durP1;ratioP1;P2;durP2;ratioP2
41687;SDS011;27371;42.686;23.362;2023-08-20T00:03:27;4.78;;;3.67;;
41687;SDS011;27371;42.686;23.362;2023-08-20T00:05:53;7.80;;;4.70;;
41687;SDS011;27371;42.686;23.362;2023-08-20T00:08:18;11.00;;;4.72;;
41687;SDS011;27371;42.686;23.362;2023-08-20T00:10:44;6.68;;;4.38;;
41687;SDS011;27371;42.686;23.362;2023-08-20T00:13:09;6.05;;;4.45;;
41687;SDS011;27371;42.686;23.362;2023-08-20T00:15:35;8.07;;;4.45;;
41687;SDS011;27371;42.686;23.362;2023-08-20T00:18:01;6.57;;;4.32;;
41687;SDS011;27371;42.686;23.362;2023-08-20T00:20:27;6.82;;;4.65;;
41687;SDS011;27371;42.686;23.362;2023-08-20T00:22:54;8.82;;;4.13;;
41687;SDS011;27371;42.686;23.362;2023-08-20T00:25:19;7.70;;;4.32;;
41687;SDS011;27371;42.686;23.362;2023-08-20T00:27:45;7.32;;;4.93;;
41687;SDS011;27371;42.686;23.362;2023-08-20T00:30:11;7.60;;;4.50;;
41687;SDS011;27371;42.686;23.362;2023-08-20T00:32:37;7.20;;;4.63;;
41687;SDS011;27371;42.686;23.362;2023-08-20T00:35:03;8.02;;;4.70;;
41687;SDS011;27371;42.686;23.362;2023-08-20T00:37:29;6.95;;;4.82;;
41687;SDS011;27371;42.686;23.362;2023-08-20T00:39:56;8.60;;;4.50;;
41687;SDS011;27371;42.686;23.362;2023-08-20T00:42:23;10.00;;;5.03;;
41687;SDS011;27371;42.686;23.362;2023-08-20T00:44:50;9.38;;;5.10;;
41687;SDS011;27371;42.686;23.362;2023-08-20T00:47:16;7.32;;;4.43;;
41687;SDS011;27371;42.686;23.362;2023-08-20T00:49:43;8.30;;;4.63;;
41687;SDS011;27371;42.686;23.362;2023-08-20T00:52:09;5.55;;;4.32;;
41687;SDS011;27371;42.686;23.362;2023-08-20T00:54:38;6.70;;;4.32;;
41687;SDS011;27371;42.686;23.362;2023-08-20T00:57:04;7.20;;;4.10;;
41687;SDS011;27371;42.686;23.362;2023-08-20T00:59:32;5.82;;;4.20;;
41687;SDS011;27371;42.686;23.362;2023-08-20T01:01:57;8.43;;;4.30;;
41687;SDS011;27371;42.686;23.362;2023-08-20T01:04:23;7.80;;;4.20;;
41687;SDS011;27371;42.686;23.362;2023-08-20T01:06:58;7.28;;;4.53;;
41687;SDS011;27371;42.686;23.362;2023-08-20T01:09:43;6.70;;;4.22;;
41687;SDS011;27371;42.686;23.362;2023-08-20T01:12:13;9.35;;;4.53;;
41687;SDS011;27371;42.686;23.362;2023-08-20T01:14:39;6.93;;;4.72;;
41687;SDS011;27371;42.686;23.362;2023-08-20T01:17:05;5.38;;;4.30;;
41687;SDS011;27371;42.686;23.362;2023-08-20T01:19:30;11.07;;;4.80;;
41687;SDS011;27371;42.686;23.362;2023-08-20T01:30:00;8.40;;;4.68;;
41687;SDS011;27371;42.686;23.362;2023-08-20T01:32:28;7.55;;;5.10;;
41687;SDS011;27371;42.686;23.362;2023-08-20T01:34:54;5.72;;;4.80;;
41687;SDS011;27371;42.686;23.362;2023-08-20T01:37:21;10.48;;;5.15;;
41687;SDS011;27371;42.686;23.362;2023-08-20T01:39:47;7.53;;;5.10;;
41687;SDS011;27371;42.686;23.362;2023-08-20T01:42:12;7.72;;;5.13;;
41687;SDS011;27371;42.686;23.362;2023-08-20T01:44:38;7.47;;;5.22;;
41687;SDS011;27371;42.686;23.362;2023-08-20T01:47:03;8.23;;;5.10;;
41687;SDS011;27371;42.686;23.362;2023-08-20T01:49:29;7.03;;;4.78;;
41687;SDS011;27371;42.686;23.362;2023-08-20T01:51:55;10.48;;;5.30;;
41687;SDS011;27371;42.686;23.362;2023-08-20T01:54:20;9.68;;;5.20;;
41687;SDS011;27371;42.686;23.362;2023-08-20T01:56:45;5.93;;;5.20;;
41687;SDS011;27371;42.686;23.362;2023-08-20T01:59:11;7.20;;;5.05;;
41687;SDS011;27371;42.686;23.362;2023-08-20T02:01:37;11.10;;;5.13;;
41687;SDS011;27371;42.686;23.362;2023-08-20T02:04:03;8.27;;;5.00;;
41687;SDS011;27371;42.686;23.362;2023-08-20T02:06:28;6.72;;;5.00;;
41687;SDS011;27371;42.686;23.362;2023-08-20T02:08:54;6.65;;;5.30;;
41687;SDS011;27371;42.686;23.362;2023-08-20T02:11:20;6.13;;;5.03;;
41687;SDS011;27371;42.686;23.362;2023-08-20T02:13:45;6.65;;;5.20;;
41687;SDS011;27371;42.686;23.362;2023-08-20T02:16:10;9.10;;;5.68;;
41687;SDS011;27371;42.686;23.362;2023-08-20T02:18:36;9.30;;;5.65;;
41687;SDS011;27371;42.686;23.362;2023-08-20T02:21:02;8.38;;;5.30;;
41687;SDS011;27371;42.686;23.362;2023-08-20T02:23:27;10.48;;;5.22;;
41687;SDS011;27371;42.686;23.362;2023-08-20T02:25:53;6.60;;;5.40;;
41687;SDS011;27371;42.686;23.362;2023-08-20T02:28:19;12.85;;;6.03;;
41687;SDS011;27371;42.686;23.362;2023-08-20T02:30:45;7.03;;;5.28;;
41687;SDS011;27371;42.686;23.362;2023-08-20T02:33:11;7.28;;;5.35;;
41687;SDS011;27371;42.686;23.362;2023-08-20T02:35:37;8.68;;;5.30;;
41687;SDS011;27371;42.686;23.362;2023-08-20T02:38:03;6.10;;;5.18;;
41687;SDS011;27371;42.686;23.362;2023-08-20T02:40:29;9.43;;;5.20;;
41687;SDS011;27371;42.686;23.362;2023-08-20T02:42:55;7.88;;;5.60;;
41687;SDS011;27371;42.686;23.362;2023-08-20T02:45:21;8.07;;;5.50;;
41687;SDS011;27371;42.686;23.362;2023-08-20T02:47:46;9.88;;;5.63;;
41687;SDS011;27371;42.686;23.362;2023-08-20T02:50:12;5.80;;;5.05;;
41687;SDS011;27371;42.686;23.362;2023-08-20T02:52:37;8.77;;;5.88;;
41687;SDS011;27371;42.686;23.362;2023-08-20T02:55:03;10.30;;;5.78;;
41687;SDS011;27371;42.686;23.362;2023-08-20T02:57:29;7.13;;;5.28;;
41687;SDS011;27371;42.686;23.362;2023-08-20T02:59:56;9.68;;;6.10;;
41687;SDS011;27371;42.686;23.362;2023-08-20T03:02:21;10.32;;;6.07;;
41687;SDS011;27371;42.686;23.362;2023-08-20T03:04:47;7.78;;;5.40;;
41687;SDS011;27371;42.686;23.362;2023-08-20T03:07:12;6.53;;;5.35;;
41687;SDS011;27371;42.686;23.362;2023-08-20T03:09:38;6.97;;;5.88;;
41687;SDS011;27371;42.686;23.362;2023-08-20T03:12:04;6.70;;;5.00;;
41687;SDS011;27371;42.686;23.362;2023-08-20T03:14:29;6.43;;;5.60;;
41687;SDS011;27371;42.686;23.362;2023-08-20T03:16:55;8.85;;;5.65;;
41687;SDS011;27371;42.686;23.362;2023-08-20T03:19:20;9.48;;;5.55;;
41687;SDS011;27371;42.686;23.362;2023-08-20T03:21:46;9.45;;;5.53;;
41687;SDS011;27371;42.686;23.362;2023-08-20T03:24:11;8.27;;;5.43;;
41687;SDS011;27371;42.686;23.362;2023-08-20T03:26:37;6.90;;;5.43;;
41687;SDS011;27371;42.686;23.362;2023-08-20T03:29:03;7.93;;;5.75;;
41687;SDS011;27371;42.686;23.362;2023-08-20T03:31:29;7.78;;;5.30;;
41687;SDS011;27371;42.686;23.362;2023-08-20T03:33:54;8.13;;;5.57;;
41687;SDS011;27371;42.686;23.362;2023-08-20T03:36:20;6.25;;;5.13;;
41687;SDS011;27371;42.686;23.362;2023-08-20T03:38:45;8.05;;;5.85;;
41687;SDS011;27371;42.686;23.362;2023-08-20T03:41:11;10.63;;;5.75;;
41687;SDS011;27371;42.686;23.362;2023-08-20T03:43:36;6.47;;;5.70;;
41687;SDS011;27371;42.686;23.362;2023-08-20T03:46:02;10.43;;;6.03;;
41687;SDS011;27371;42.686;23.362;2023-08-20T03:48:28;9.70;;;5.78;;
41687;SDS011;27371;42.686;23.362;2023-08-20T03:50:53;10.10;;;5.90;;
41687;SDS011;27371;42.686;23.362;2023-08-20T03:53:19;9.07;;;5.70;;
41687;SDS011;27371;42.686;23.362;2023-08-20T03:55:48;8.38;;;5.35;;
41687;SDS011;27371;42.686;23.362;2023-08-20T03:58:14;9.13;;;5.65;;
41687;SDS011;27371;42.686;23.362;2023-08-20T04:00:40;12.63;;;5.82;;
41687;SDS011;27371;42.686;23.362;2023-08-20T04:03:05;8.05;;;5.20;;
41687;SDS011;27371;42.686;23.362;2023-08-20T04:05:35;9.18;;;5.40;;
41687;SDS011;27371;42.686;23.362;2023-08-20T04:08:04;10.10;;;6.13;;
41687;SDS011;27371;42.686;23.362;2023-08-20T04:10:31;9.80;;;5.75;;
41687;SDS011;27371;42.686;23.362;2023-08-20T04:12:57;8.55;;;5.85;;
41687;SDS011;27371;42.686;23.362;2023-08-20T04:15:23;9.10;;;6.43;;
41687;SDS011;27371;42.686;23.362;2023-08-20T04:17:49;9.63;;;5.97;;
41687;SDS011;27371;42.686;23.362;2023-08-20T04:20:15;11.68;;;6.55;;
41687;SDS011;27371;42.686;23.362;2023-08-20T04:22:40;7.65;;;6.20;;
41687;SDS011;27371;42.686;23.362;2023-08-20T04:25:06;8.98;;;5.90;;
41687;SDS011;27371;42.686;23.362;2023-08-20T04:27:32;9.38;;;6.50;;
41687;SDS011;27371;42.686;23.362;2023-08-20T04:29:58;8.55;;;5.95;;
41687;SDS011;27371;42.686;23.362;2023-08-20T04:32:23;9.07;;;6.22;;
41687;SDS011;27371;42.686;23.362;2023-08-20T04:34:49;9.38;;;6.00;;
41687;SDS011;27371;42.686;23.362;2023-08-20T04:37:17;8.80;;;5.60;;
41687;SDS011;27371;42.686;23.362;2023-08-20T04:39:44;11.55;;;6.30;;
41687;SDS011;27371;42.686;23.362;2023-08-20T04:42:09;8.65;;;6.03;;
41687;SDS011;27371;42.686;23.362;2023-08-20T04:44:35;11.63;;;6.03;;
41687;SDS011;27371;42.686;23.362;2023-08-20T04:47:00;9.07;;;5.85;;
41687;SDS011;27371;42.686;23.362;2023-08-20T04:49:26;10.05;;;6.30;;
41687;SDS011;27371;42.686;23.362;2023-08-20T04:51:53;11.75;;;5.78;;
41687;SDS011;27371;42.686;23.362;2023-08-20T04:54:19;7.75;;;5.78;;
41687;SDS011;27371;42.686;23.362;2023-08-20T04:56:45;8.43;;;5.50;;
41687;SDS011;27371;42.686;23.362;2023-08-20T04:59:10;10.88;;;6.60;;
41687;SDS011;27371;42.686;23.362;2023-08-20T05:01:37;9.93;;;6.32;;
41687;SDS011;27371;42.686;23.362;2023-08-20T05:04:03;9.52;;;6.13;;
41687;SDS011;27371;42.686;23.362;2023-08-20T05:06:29;7.57;;;6.35;;
41687;SDS011;27371;42.686;23.362;2023-08-20T05:08:54;11.23;;;6.78;;
41687;SDS011;27371;42.686;23.362;2023-08-20T05:11:20;9.85;;;6.30;;
41687;SDS011;27371;42.686;23.362;2023-08-20T05:13:47;8.73;;;5.57;;
41687;SDS011;27371;42.686;23.362;2023-08-20T05:16:12;9.43;;;6.00;;
41687;SDS011;27371;42.686;23.362;2023-08-20T05:18:38;12.52;;;5.75;;
41687;SDS011;27371;42.686;23.362;2023-08-20T05:21:03;8.98;;;6.05;;
41687;SDS011;27371;42.686;23.362;2023-08-20T05:23:29;9.63;;;6.18;;
41687;SDS011;27371;42.686;23.362;2023-08-20T05:25:54;12.75;;;6.53;;
41687;SDS011;27371;42.686;23.362;2023-08-20T05:28:20;9.52;;;6.13;;
41687;SDS011;27371;42.686;23.362;2023-08-20T05:30:53;10.95;;;6.10;;
41687;SDS011;27371;42.686;23.362;2023-08-20T05:33:20;10.80;;;5.90;;
41687;SDS011;27371;42.686;23.362;2023-08-20T05:35:46;6.80;;;6.10;;
41687;SDS011;27371;42.686;23.362;2023-08-20T05:38:11;11.27;;;6.45;;
41687;SDS011;27371;42.686;23.362;2023-08-20T05:40:37;9.23;;;6.07;;
41687;SDS011;27371;42.686;23.362;2023-08-20T05:43:03;10.25;;;5.68;;
41687;SDS011;27371;42.686;23.362;2023-08-20T05:45:28;9.45;;;6.03;;
41687;SDS011;27371;42.686;23.362;2023-08-20T05:47:54;10.90;;;5.97;;
41687;SDS011;27371;42.686;23.362;2023-08-20T05:50:19;11.45;;;5.43;;
41687;SDS011;27371;42.686;23.362;2023-08-20T05:52:45;9.05;;;5.88;;
41687;SDS011;27371;42.686;23.362;2023-08-20T05:55:10;13.27;;;6.72;;
41687;SDS011;27371;42.686;23.362;2023-08-20T05:57:36;12.10;;;6.03;;
41687;SDS011;27371;42.686;23.362;2023-08-20T06:00:03;8.85;;;5.75;;
41687;SDS011;27371;42.686;23.362;2023-08-20T06:02:29;9.00;;;5.78;;
41687;SDS011;27371;42.686;23.362;2023-08-20T06:04:55;12.13;;;6.22;;
41687;SDS011;27371;42.686;23.362;2023-08-20T06:07:20;11.07;;;5.90;;
41687;SDS011;27371;42.686;23.362;2023-08-20T06:09:46;8.50;;;6.07;;
41687;SDS011;27371;42.686;23.362;2023-08-20T06:12:12;10.13;;;5.93;;
41687;SDS011;27371;42.686;23.362;2023-08-20T06:14:38;13.27;;;6.35;;
41687;SDS011;27371;42.686;23.362;2023-08-20T06:17:03;9.07;;;5.95;;
41687;SDS011;27371;42.686;23.362;2023-08-20T06:19:29;12.48;;;6.20;;
41687;SDS011;27371;42.686;23.362;2023-08-20T06:24:38;9.40;;;5.78;;
41687;SDS011;27371;42.686;23.362;2023-08-20T06:27:04;8.10;;;5.47;;
41687;SDS011;27371;42.686;23.362;2023-08-20T06:29:29;10.57;;;6.07;;
41687;SDS011;27371;42.686;23.362;2023-08-20T06:31:55;7.65;;;5.50;;
41687;SDS011;27371;42.686;23.362;2023-08-20T06:34:20;10.93;;;5.20;;
41687;SDS011;27371;42.686;23.362;2023-08-20T06:36:47;7.18;;;5.40;;
41687;SDS011;27371;42.686;23.362;2023-08-20T06:39:12;7.88;;;5.10;;
41687;SDS011;27371;42.686;23.362;2023-08-20T06:41:40;10.20;;;5.45;;
41687;SDS011;27371;42.686;23.362;2023-08-20T06:44:06;8.30;;;5.82;;
41687;SDS011;27371;42.686;23.362;2023-08-20T06:46:31;8.32;;;5.72;;
41687;SDS011;27371;42.686;23.362;2023-08-20T06:48:57;11.27;;;5.80;;
41687;SDS011;27371;42.686;23.362;2023-08-20T06:51:22;12.00;;;6.50;;
41687;SDS011;27371;42.686;23.362;2023-08-20T06:53:48;9.07;;;6.32;;
41687;SDS011;27371;42.686;23.362;2023-08-20T06:56:14;12.48;;;6.32;;
41687;SDS011;27371;42.686;23.362;2023-08-20T06:58:41;8.52;;;6.75;;
41687;SDS011;27371;42.686;23.362;2023-08-20T07:01:07;7.93;;;5.63;;
41687;SDS011;27371;42.686;23.362;2023-08-20T07:03:34;7.85;;;5.50;;
41687;SDS011;27371;42.686;23.362;2023-08-20T07:06:03;10.45;;;5.55;;
41687;SDS011;27371;42.686;23.362;2023-08-20T07:08:29;12.02;;;5.90;;
41687;SDS011;27371;42.686;23.362;2023-08-20T07:10:54;8.93;;;5.40;;
41687;SDS011;27371;42.686;23.362;2023-08-20T07:13:20;10.90;;;5.65;;
41687;SDS011;27371;42.686;23.362;2023-08-20T07:15:46;11.25;;;5.80;;
41687;SDS011;27371;42.686;23.362;2023-08-20T07:18:11;12.55;;;11.07;;
41687;SDS011;27371;42.686;23.362;2023-08-20T07:20:41;6.72;;;4.82;;
41687;SDS011;27371;42.686;23.362;2023-08-20T07:23:07;11.00;;;6.63;;
41687;SDS011;27371;42.686;23.362;2023-08-20T07:25:35;7.57;;;4.97;;
41687;SDS011;27371;42.686;23.362;2023-08-20T07:28:03;7.35;;;4.60;;
41687;SDS011;27371;42.686;23.362;2023-08-20T07:30:29;9.35;;;4.07;;
41687;SDS011;27371;42.686;23.362;2023-08-20T07:32:55;9.63;;;4.82;;
41687;SDS011;27371;42.686;23.362;2023-08-20T07:35:20;9.35;;;4.80;;
41687;SDS011;27371;42.686;23.362;2023-08-20T07:37:46;6.68;;;4.53;;
41687;SDS011;27371;42.686;23.362;2023-08-20T07:40:12;6.80;;;4.13;;
41687;SDS011;27371;42.686;23.362;2023-08-20T07:42:40;10.07;;;4.40;;
41687;SDS011;27371;42.686;23.362;2023-08-20T07:45:07;8.40;;;4.18;;
41687;SDS011;27371;42.686;23.362;2023-08-20T07:47:33;7.85;;;3.78;;
41687;SDS011;27371;42.686;23.362;2023-08-20T07:49:59;6.10;;;4.10;;
41687;SDS011;27371;42.686;23.362;2023-08-20T07:52:25;7.43;;;4.10;;
41687;SDS011;27371;42.686;23.362;2023-08-20T07:54:50;7.85;;;3.67;;
41687;SDS011;27371;42.686;23.362;2023-08-20T07:57:16;7.35;;;4.25;;
41687;SDS011;27371;42.686;23.362;2023-08-20T07:59:41;10.27;;;3.65;;
41687;SDS011;27371;42.686;23.362;2023-08-20T08:02:07;5.28;;;4.22;;
41687;SDS011;27371;42.686;23.362;2023-08-20T08:04:33;5.18;;;3.33;;
41687;SDS011;27371;42.686;23.362;2023-08-20T08:06:59;7.88;;;5.78;;
41687;SDS011;27371;42.686;23.362;2023-08-20T08:09:28;6.18;;;4.78;;
41687;SDS011;27371;42.686;23.362;2023-08-20T08:11:55;11.13;;;7.43;;
41687;SDS011;27371;42.686;23.362;2023-08-20T08:14:21;6.45;;;4.50;;
41687;SDS011;27371;42.686;23.362;2023-08-20T08:16:48;5.55;;;4.57;;
41687;SDS011;27371;42.686;23.362;2023-08-20T08:19:13;5.40;;;3.45;;
41687;SDS011;27371;42.686;23.362;2023-08-20T08:21:39;9.50;;;3.75;;
41687;SDS011;27371;42.686;23.362;2023-08-20T08:24:06;5.65;;;3.17;;
41687;SDS011;27371;42.686;23.362;2023-08-20T08:26:33;7.13;;;3.55;;
41687;SDS011;27371;42.686;23.362;2023-08-20T08:28:59;6.68;;;3.72;;
41687;SDS011;27371;42.686;23.362;2023-08-20T08:31:24;4.95;;;3.13;;
41687;SDS011;27371;42.686;23.362;2023-08-20T08:33:50;4.00;;;2.90;;
41687;SDS011;27371;42.686;23.362;2023-08-20T08:36:16;8.60;;;3.60;;
41687;SDS011;27371;42.686;23.362;2023-08-20T08:38:42;4.72;;;2.78;;
41687;SDS011;27371;42.686;23.362;2023-08-20T08:41:11;4.57;;;3.15;;
41687;SDS011;27371;42.686;23.362;2023-08-20T08:43:40;6.72;;;3.53;;
41687;SDS011;27371;42.686;23.362;2023-08-20T08:46:07;9.98;;;3.53;;
41687;SDS011;27371;42.686;23.362;2023-08-20T08:48:36;5.95;;;2.80;;
41687;SDS011;27371;42.686;23.362;2023-08-20T08:51:04;4.65;;;2.75;;
41687;SDS011;27371;42.686;23.362;2023-08-20T08:53:30;4.70;;;2.72;;
41687;SDS011;27371;42.686;23.362;2023-08-20T08:55:58;4.43;;;2.92;;
41687;SDS011;27371;42.686;23.362;2023-08-20T08:58:24;8.90;;;3.10;;
41687;SDS011;27371;42.686;23.362;2023-08-20T09:00:50;3.55;;;3.00;;
41687;SDS011;27371;42.686;23.362;2023-08-20T09:03:15;3.63;;;2.83;;
41687;SDS011;27371;42.686;23.362;2023-08-20T09:05:47;4.38;;;2.83;;
41687;SDS011;27371;42.686;23.362;2023-08-20T09:08:20;4.20;;;2.78;;
41687;SDS011;27371;42.686;23.362;2023-08-20T09:10:51;5.10;;;3.28;;
41687;SDS011;27371;42.686;23.362;2023-08-20T09:13:39;7.18;;;3.40;;
41687;SDS011;27371;42.686;23.362;2023-08-20T09:16:06;5.72;;;2.72;;
41687;SDS011;27371;42.686;23.362;2023-08-20T09:18:34;4.05;;;2.70;;
41687;SDS011;27371;42.686;23.362;2023-08-20T09:21:06;4.28;;;2.58;;
41687;SDS011;27371;42.686;23.362;2023-08-20T09:23:35;4.03;;;2.22;;
41687;SDS011;27371;42.686;23.362;2023-08-20T09:26:02;5.50;;;2.60;;
41687;SDS011;27371;42.686;23.362;2023-08-20T09:28:29;3.65;;;2.60;;
41687;SDS011;27371;42.686;23.362;2023-08-20T09:31:05;3.67;;;2.50;;
41687;SDS011;27371;42.686;23.362;2023-08-20T09:33:30;4.47;;;2.83;;
41687;SDS011;27371;42.686;23.362;2023-08-20T09:35:56;6.60;;;2.63;;
41687;SDS011;27371;42.686;23.362;2023-08-20T09:38:22;3.70;;;2.78;;
41687;SDS011;27371;42.686;23.362;2023-08-20T09:40:49;6.72;;;2.92;;
41687;SDS011;27371;42.686;23.362;2023-08-20T09:43:17;4.68;;;2.33;;
41687;SDS011;27371;42.686;23.362;2023-08-20T09:45:43;4.47;;;2.05;;
41687;SDS011;27371;42.686;23.362;2023-08-20T09:48:11;3.05;;;2.00;;
41687;SDS011;27371;42.686;23.362;2023-08-20T09:50:40;3.38;;;3.08;;
41687;SDS011;27371;42.686;23.362;2023-08-20T09:53:27;3.35;;;2.08;;
41687;SDS011;27371;42.686;23.362;2023-08-20T09:56:07;9.52;;;2.17;;
41687;SDS011;27371;42.686;23.362;2023-08-20T09:58:43;3.85;;;1.70;;
41687;SDS011;27371;42.686;23.362;2023-08-20T10:01:08;2.80;;;1.90;;
41687;SDS011;27371;42.686;23.362;2023-08-20T10:03:34;2.63;;;1.77;;
41687;SDS011;27371;42.686;23.362;2023-08-20T10:06:02;3.33;;;1.90;;
41687;SDS011;27371;42.686;23.362;2023-08-20T10:08:28;2.85;;;1.90;;
41687;SDS011;27371;42.686;23.362;2023-08-20T10:10:54;4.30;;;2.08;;
41687;SDS011;27371;42.686;23.362;2023-08-20T10:13:20;3.50;;;2.17;;
41687;SDS011;27371;42.686;23.362;2023-08-20T10:15:46;4.25;;;2.22;;
41687;SDS011;27371;42.686;23.362;2023-08-20T10:18:12;5.55;;;1.80;;
41687;SDS011;27371;42.686;23.362;2023-08-20T10:20:38;2.47;;;1.90;;
41687;SDS011;27371;42.686;23.362;2023-08-20T10:23:05;4.25;;;2.15;;
41687;SDS011;27371;42.686;23.362;2023-08-20T10:25:31;4.03;;;1.75;;
41687;SDS011;27371;42.686;23.362;2023-08-20T10:33:28;4.45;;;1.98;;
41687;SDS011;27371;42.686;23.362;2023-08-20T10:35:54;5.32;;;2.00;;
41687;SDS011;27371;42.686;23.362;2023-08-20T10:38:20;3.47;;;2.00;;
41687;SDS011;27371;42.686;23.362;2023-08-20T10:40:55;4.75;;;2.20;;
41687;SDS011;27371;42.686;23.362;2023-08-20T10:43:31;3.25;;;1.90;;
41687;SDS011;27371;42.686;23.362;2023-08-20T10:46:16;7.25;;;2.45;;
41687;SDS011;27371;42.686;23.362;2023-08-20T10:48:46;5.95;;;2.70;;
41687;SDS011;27371;42.686;23.362;2023-08-20T10:51:13;5.10;;;2.00;;
41687;SDS011;27371;42.686;23.362;2023-08-20T10:53:43;3.72;;;2.20;;
41687;SDS011;27371;42.686;23.362;2023-08-20T10:56:15;2.63;;;1.88;;
41687;SDS011;27371;42.686;23.362;2023-08-20T10:58:42;5.95;;;2.28;;
41687;SDS011;27371;42.686;23.362;2023-08-20T11:01:27;4.13;;;2.20;;
41687;SDS011;27371;42.686;23.362;2023-08-20T11:03:53;3.70;;;1.98;;
41687;SDS011;27371;42.686;23.362;2023-08-20T11:06:20;5.43;;;2.33;;
41687;SDS011;27371;42.686;23.362;2023-08-20T11:08:46;2.90;;;2.28;;
41687;SDS011;27371;42.686;23.362;2023-08-20T11:11:12;4.68;;;2.35;;
41687;SDS011;27371;42.686;23.362;2023-08-20T11:13:38;4.88;;;1.67;;
41687;SDS011;27371;42.686;23.362;2023-08-20T11:16:04;4.63;;;2.13;;
41687;SDS011;27371;42.686;23.362;2023-08-20T11:18:34;2.13;;;1.77;;
41687;SDS011;27371;42.686;23.362;2023-08-20T11:21:00;2.40;;;1.77;;
41687;SDS011;27371;42.686;23.362;2023-08-20T11:23:26;5.28;;;2.10;;
41687;SDS011;27371;42.686;23.362;2023-08-20T11:25:53;3.30;;;2.00;;
41687;SDS011;27371;42.686;23.362;2023-08-20T11:28:19;2.63;;;2.08;;
41687;SDS011;27371;42.686;23.362;2023-08-20T11:30:45;2.08;;;1.77;;
41687;SDS011;27371;42.686;23.362;2023-08-20T11:33:11;4.30;;;2.20;;
41687;SDS011;27371;42.686;23.362;2023-08-20T11:35:37;2.95;;;2.00;;
41687;SDS011;27371;42.686;23.362;2023-08-20T11:38:03;3.47;;;2.20;;
41687;SDS011;27371;42.686;23.362;2023-08-20T11:40:29;3.97;;;2.20;;
41687;SDS011;27371;42.686;23.362;2023-08-20T11:42:55;5.55;;;2.22;;
41687;SDS011;27371;42.686;23.362;2023-08-20T11:45:20;3.13;;;2.08;;
41687;SDS011;27371;42.686;23.362;2023-08-20T11:47:46;9.50;;;2.50;;
41687;SDS011;27371;42.686;23.362;2023-08-20T11:50:11;3.05;;;2.15;;
41687;SDS011;27371;42.686;23.362;2023-08-20T11:52:38;4.15;;;2.08;;
41687;SDS011;27371;42.686;23.362;2023-08-20T11:55:06;3.22;;;2.25;;
41687;SDS011;27371;42.686;23.362;2023-08-20T11:57:33;3.08;;;2.47;;
41687;SDS011;27371;42.686;23.362;2023-08-20T12:00:04;2.95;;;2.03;;
41687;SDS011;27371;42.686;23.362;2023-08-20T12:02:40;3.95;;;2.25;;
41687;SDS011;27371;42.686;23.362;2023-08-20T12:05:07;4.13;;;2.20;;
41687;SDS011;27371;42.686;23.362;2023-08-20T12:07:32;2.63;;;2.00;;
41687;SDS011;27371;42.686;23.362;2023-08-20T12:09:58;2.72;;;2.10;;
41687;SDS011;27371;42.686;23.362;2023-08-20T12:12:23;4.03;;;2.13;;
41687;SDS011;27371;42.686;23.362;2023-08-20T12:14:49;4.82;;;2.20;;
41687;SDS011;27371;42.686;23.362;2023-08-20T12:17:18;3.05;;;2.30;;
41687;SDS011;27371;42.686;23.362;2023-08-20T12:19:44;2.40;;;2.08;;
41687;SDS011;27371;42.686;23.362;2023-08-20T12:22:10;3.97;;;2.30;;
41687;SDS011;27371;42.686;23.362;2023-08-20T12:24:35;5.40;;;2.50;;
41687;SDS011;27371;42.686;23.362;2023-08-20T12:27:01;7.85;;;2.53;;
41687;SDS011;27371;42.686;23.362;2023-08-20T12:29:26;2.95;;;2.00;;
41687;SDS011;27371;42.686;23.362;2023-08-20T12:31:51;3.85;;;2.25;;
41687;SDS011;27371;42.686;23.362;2023-08-20T12:34:17;4.55;;;2.10;;
41687;SDS011;27371;42.686;23.362;2023-08-20T12:36:42;6.53;;;2.30;;
41687;SDS011;27371;42.686;23.362;2023-08-20T12:39:08;5.78;;;2.35;;
41687;SDS011;27371;42.686;23.362;2023-08-20T12:41:34;5.68;;;2.08;;
41687;SDS011;27371;42.686;23.362;2023-08-20T12:44:01;3.60;;;2.33;;
41687;SDS011;27371;42.686;23.362;2023-08-20T12:46:27;2.65;;;2.20;;
41687;SDS011;27371;42.686;23.362;2023-08-20T12:48:52;4.72;;;2.20;;
41687;SDS011;27371;42.686;23.362;2023-08-20T12:51:18;7.15;;;2.22;;
41687;SDS011;27371;42.686;23.362;2023-08-20T12:53:44;8.93;;;2.30;;
41687;SDS011;27371;42.686;23.362;2023-08-20T12:56:10;3.60;;;2.13;;
41687;SDS011;27371;42.686;23.362;2023-08-20T12:58:35;5.95;;;2.67;;
41687;SDS011;27371;42.686;23.362;2023-08-20T13:01:01;7.82;;;2.15;;
41687;SDS011;27371;42.686;23.362;2023-08-20T13:03:27;3.22;;;2.45;;
41687;SDS011;27371;42.686;23.362;2023-08-20T13:05:53;3.50;;;1.98;;
41687;SDS011;27371;42.686;23.362;2023-08-20T13:08:22;4.65;;;2.00;;
41687;SDS011;27371;42.686;23.362;2023-08-20T13:10:57;4.07;;;2.38;;
41687;SDS011;27371;42.686;23.362;2023-08-20T13:13:24;5.22;;;2.40;;
41687;SDS011;27371;42.686;23.362;2023-08-20T13:15:53;3.47;;;2.40;;
41687;SDS011;27371;42.686;23.362;2023-08-20T13:18:19;3.40;;;2.13;;
41687;SDS011;27371;42.686;23.362;2023-08-20T13:20:50;5.13;;;2.20;;
41687;SDS011;27371;42.686;23.362;2023-08-20T13:23:16;3.35;;;2.22;;
41687;SDS011;27371;42.686;23.362;2023-08-20T13:25:42;4.88;;;1.80;;
41687;SDS011;27371;42.686;23.362;2023-08-20T13:28:08;3.80;;;2.05;;
41687;SDS011;27371;42.686;23.362;2023-08-20T13:30:34;4.53;;;1.90;;
41687;SDS011;27371;42.686;23.362;2023-08-20T13:32:59;5.25;;;2.05;;
41687;SDS011;27371;42.686;23.362;2023-08-20T13:35:25;4.10;;;2.30;;
41687;SDS011;27371;42.686;23.362;2023-08-20T13:37:51;4.75;;;2.63;;
41687;SDS011;27371;42.686;23.362;2023-08-20T13:40:17;5.00;;;1.90;;
41687;SDS011;27371;42.686;23.362;2023-08-20T13:42:43;3.33;;;1.98;;
41687;SDS011;27371;42.686;23.362;2023-08-20T13:45:08;4.40;;;2.05;;
41687;SDS011;27371;42.686;23.362;2023-08-20T13:47:34;5.53;;;2.08;;
41687;SDS011;27371;42.686;23.362;2023-08-20T13:50:00;8.75;;;1.90;;
41687;SDS011;27371;42.686;23.362;2023-08-20T13:52:25;3.00;;;2.08;;
41687;SDS011;27371;42.686;23.362;2023-08-20T13:54:51;4.90;;;2.13;;
41687;SDS011;27371;42.686;23.362;2023-08-20T13:57:16;4.95;;;2.03;;
41687;SDS011;27371;42.686;23.362;2023-08-20T13:59:42;3.75;;;2.30;;
41687;SDS011;27371;42.686;23.362;2023-08-20T14:02:07;4.30;;;1.92;;
41687;SDS011;27371;42.686;23.362;2023-08-20T14:04:33;3.92;;;2.63;;
41687;SDS011;27371;42.686;23.362;2023-08-20T14:06:58;2.22;;;1.88;;
41687;SDS011;27371;42.686;23.362;2023-08-20T14:09:24;3.88;;;1.90;;
41687;SDS011;27371;42.686;23.362;2023-08-20T14:11:50;5.93;;;1.90;;
41687;SDS011;27371;42.686;23.362;2023-08-20T14:14:15;2.67;;;1.90;;
41687;SDS011;27371;42.686;23.362;2023-08-20T14:16:41;6.28;;;2.25;;
41687;SDS011;27371;42.686;23.362;2023-08-20T14:19:07;5.55;;;2.47;;
41687;SDS011;27371;42.686;23.362;2023-08-20T14:21:32;3.45;;;1.90;;
41687;SDS011;27371;42.686;23.362;2023-08-20T14:23:58;3.40;;;2.17;;
41687;SDS011;27371;42.686;23.362;2023-08-20T14:26:23;3.15;;;2.08;;
41687;SDS011;27371;42.686;23.362;2023-08-20T14:28:49;4.88;;;2.15;;
41687;SDS011;27371;42.686;23.362;2023-08-20T14:31:15;3.67;;;2.30;;
41687;SDS011;27371;42.686;23.362;2023-08-20T14:33:40;4.45;;;2.25;;
41687;SDS011;27371;42.686;23.362;2023-08-20T14:36:06;3.35;;;2.10;;
41687;SDS011;27371;42.686;23.362;2023-08-20T14:38:32;3.58;;;2.13;;
41687;SDS011;27371;42.686;23.362;2023-08-20T14:41:00;9.27;;;1.80;;
41687;SDS011;27371;42.686;23.362;2023-08-20T14:43:27;4.45;;;2.13;;
41687;SDS011;27371;42.686;23.362;2023-08-20T14:45:53;3.13;;;2.10;;
41687;SDS011;27371;42.686;23.362;2023-08-20T14:48:20;4.32;;;1.90;;